White Sands Missile Range, New Mexico
Current Conditions -  °F | °C
As of 1:55 AM on Thursday 23 Oct 2014 (Local Time) from KLRU Reporting Station
Clear Clear  
Wind Chill: 55°   Ceiling: Unl
Heat Index: 55°   Visibility: 10mi
Dew Point: 51°   Wind: 0mph
Humidity: 88%   Direction: NA
Pressure: 30.18"   Gusts: NA
Location:  32.38°N, 106.49°W
Report Text: KLRU 230755Z AUTO 00000KT 10SM CLR 13/11 A3018 RMK AO2 T01250105 PWINO
Loading
Personal Weather Stations






























Interactive Weather Map
Tropical Storm Tracking
New forecast layout! Learn more

10-Day Weather Forecast

Advertisements
Track Severe Weather on mobile